createdAt,value
2023-03-26T00:08:09.400Z,24.07
2023-03-26T00:18:14.673Z,24.10
2023-03-26T00:28:19.720Z,24.13
2023-03-26T00:38:25.605Z,24.10
2023-03-26T00:48:42.257Z,24.04
2023-03-26T00:58:41.236Z,24.01
2023-03-26T01:08:46.503Z,24.01
2023-03-26T01:18:51.703Z,24.11
2023-03-26T01:28:56.902Z,24.03
2023-03-26T01:39:01.800Z,23.97
2023-03-26T01:49:06.963Z,23.92
2023-03-26T01:59:12.400Z,23.87
2023-03-26T02:09:17.529Z,23.85
2023-03-26T02:19:22.933Z,23.83
2023-03-26T02:29:27.982Z,23.84
2023-03-26T02:39:33.414Z,23.79
2023-03-26T02:49:38.741Z,23.78
2023-03-26T02:59:43.946Z,23.78
2023-03-26T03:09:48.952Z,23.80
2023-03-26T03:19:54.354Z,23.75
2023-03-26T03:29:59.516Z,23.74
2023-03-26T03:40:04.797Z,23.80
2023-03-26T03:50:10.174Z,23.73
2023-03-26T04:00:15.571Z,23.71
2023-03-26T04:10:20.729Z,23.70
2023-03-26T04:20:25.986Z,23.64
2023-03-26T04:30:31.646Z,23.66
2023-03-26T04:40:36.832Z,23.65
2023-03-26T04:50:42.394Z,23.65
2023-03-26T05:00:47.261Z,23.62
2023-03-26T05:10:52.909Z,23.62
2023-03-26T05:20:58.792Z,23.58
2023-03-26T05:31:04.138Z,23.60
2023-03-26T05:41:09.732Z,23.59
2023-03-26T05:51:15.470Z,23.58
2023-03-26T06:01:21.090Z,23.59
2023-03-26T06:11:26.179Z,23.57
2023-03-26T06:21:31.621Z,23.56
2023-03-26T06:31:36.818Z,23.52
2023-03-26T06:41:41.679Z,23.55
2023-03-26T06:51:46.681Z,23.54
2023-03-26T07:01:51.902Z,23.52
2023-03-26T07:11:57.048Z,23.53
2023-03-26T07:22:02.357Z,23.51
2023-03-26T07:32:07.599Z,23.50
2023-03-26T07:42:13.209Z,23.49
2023-03-26T07:52:18.189Z,23.50
2023-03-26T08:02:23.419Z,23.50
2023-03-26T08:12:29.047Z,23.48
2023-03-26T08:22:34.184Z,23.46
2023-03-26T08:32:39.290Z,23.47
2023-03-26T08:42:44.659Z,23.45
2023-03-26T08:52:50.104Z,23.45
2023-03-26T09:02:55.674Z,23.43
2023-03-26T09:13:00.863Z,23.45
2023-03-26T09:23:06.179Z,23.47
2023-03-26T09:33:11.161Z,23.46
2023-03-26T09:43:16.333Z,23.45
2023-03-26T09:53:21.532Z,23.43
2023-03-26T10:03:27.083Z,23.41
2023-03-26T10:13:32.182Z,23.44
2023-03-26T10:23:37.534Z,23.42
2023-03-26T10:33:42.395Z,23.42
2023-03-26T10:43:54.842Z,23.44
2023-03-26T10:53:58.185Z,23.44
2023-03-26T11:04:03.471Z,23.48
2023-03-26T11:14:08.955Z,23.40
2023-03-26T11:24:14.238Z,23.44
2023-03-26T11:34:19.429Z,23.47
2023-03-26T11:44:24.503Z,23.50
2023-03-26T11:54:29.904Z,23.56
2023-03-26T12:04:35.320Z,23.61
2023-03-26T12:14:40.768Z,23.66
2023-03-26T12:24:46.434Z,23.75
2023-03-26T12:34:51.508Z,23.74
2023-03-26T12:44:58.901Z,23.78
2023-03-26T12:55:12.161Z,23.82
2023-03-26T13:05:15.824Z,23.87
2023-03-26T13:15:21.498Z,23.84
2023-03-26T13:25:28.213Z,23.77
2023-03-26T13:35:33.705Z,23.82
2023-03-26T13:45:39.128Z,23.83
2023-03-26T13:55:44.343Z,23.86
2023-03-26T14:05:49.604Z,23.92
2023-03-26T14:15:55.386Z,23.89
2023-03-26T14:26:01.211Z,23.87
2023-03-26T14:36:07.027Z,23.91
2023-03-26T14:46:12.639Z,23.88
2023-03-26T14:56:18.561Z,23.90
2023-03-26T15:06:24.109Z,23.95
2023-03-26T15:16:29.349Z,23.94
2023-03-26T15:26:34.667Z,23.92
2023-03-26T15:36:40.307Z,23.96
2023-03-26T15:46:45.603Z,23.97
2023-03-26T15:56:51.260Z,23.98
2023-03-26T16:06:56.542Z,23.96
2023-03-26T16:17:01.750Z,24.04
2023-03-26T16:27:07.188Z,24.04
2023-03-26T16:37:12.500Z,24.06
2023-03-26T16:47:17.739Z,24.07
2023-03-26T16:57:22.729Z,24.02
2023-03-26T17:07:28.006Z,24.02
2023-03-26T17:17:33.581Z,24.09
2023-03-26T17:27:39.138Z,24.07
2023-03-26T17:37:44.730Z,24.04
2023-03-26T17:47:49.964Z,24.08
2023-03-26T17:57:55.161Z,24.12
2023-03-26T18:08:00.223Z,24.09
2023-03-26T18:18:05.364Z,24.08
2023-03-26T18:28:10.642Z,24.10
2023-03-26T18:38:16.091Z,24.13
2023-03-26T18:48:20.901Z,24.13
2023-03-26T18:58:26.294Z,24.13
2023-03-26T19:08:34.456Z,24.11
2023-03-26T19:18:39.876Z,24.09
2023-03-26T19:28:49.470Z,24.11
2023-03-26T19:38:55.170Z,24.09
2023-03-26T19:49:00.415Z,24.13
2023-03-26T19:59:07.482Z,24.08
2023-03-26T20:09:13.733Z,24.11
2023-03-26T20:19:19.310Z,24.15
2023-03-26T20:29:24.466Z,24.06
2023-03-26T20:39:29.834Z,24.12
2023-03-26T20:49:35.343Z,24.15
2023-03-26T20:59:40.666Z,24.14
2023-03-26T21:09:45.695Z,24.11
2023-03-26T21:19:50.625Z,24.09
2023-03-26T21:29:56.241Z,24.12
2023-03-26T21:40:01.329Z,24.02
2023-03-26T21:50:06.684Z,24.09
2023-03-26T22:00:11.670Z,24.09
2023-03-26T22:10:17.044Z,24.09
2023-03-26T22:20:22.542Z,24.06
2023-03-26T22:30:27.867Z,24.06
2023-03-26T22:40:33.182Z,24.01
2023-03-26T22:50:38.098Z,24.05
2023-03-26T23:00:43.492Z,24.08
2023-03-26T23:10:48.809Z,24.07
2023-03-26T23:20:54.068Z,24.10
2023-03-26T23:30:59.688Z,24.18
2023-03-26T23:41:05.147Z,24.16
2023-03-26T23:51:10.426Z,24.14
